createdAt,value
2022-08-12T00:03:17.735Z,101978.63
2022-08-12T00:14:01.818Z,101973.91
2022-08-12T00:24:41.929Z,101973.38
2022-08-12T00:35:29.202Z,101960.91
2022-08-12T00:46:17.029Z,101968.03
2022-08-12T00:56:39.396Z,101955.31
2022-08-12T01:07:22.144Z,101969.44
2022-08-12T01:17:45.208Z,101974.44
2022-08-12T01:28:13.725Z,101963.53
2022-08-12T01:38:36.205Z,101958.94
2022-08-12T01:49:22.487Z,101957.41
2022-08-12T02:00:05.021Z,101962.44
2022-08-12T02:11:00.398Z,101948.69
2022-08-12T02:21:38.343Z,101950.06
2022-08-12T02:32:00.111Z,101946.66
2022-08-12T02:42:25.060Z,101937.13
2022-08-12T02:52:48.158Z,101934.28
2022-08-12T03:03:11.925Z,101933.97
2022-08-12T03:13:36.440Z,101938.44
2022-08-12T03:24:00.399Z,101936.44
2022-08-12T03:34:29.925Z,101931.78
2022-08-12T03:45:31.353Z,101934.50
2022-08-12T03:56:11.982Z,101930.56
2022-08-12T04:06:35.939Z,101930.81
2022-08-12T04:16:57.920Z,101920.78
2022-08-12T04:27:19.766Z,101922.94
2022-08-12T04:37:58.451Z,101910.44
2022-08-12T04:48:22.397Z,101911.47
2022-08-12T04:58:47.369Z,101917.59
2022-08-12T05:09:13.635Z,101911.88
2022-08-12T05:19:35.380Z,101921.16
2022-08-12T05:30:07.787Z,101917.63
2022-08-12T05:40:30.610Z,101933.19
2022-08-12T05:50:53.162Z,101934.13
2022-08-12T06:02:09.458Z,101928.09
2022-08-12T06:12:05.808Z,101929.31
2022-08-12T06:22:28.190Z,101941.94
2022-08-12T06:33:11.443Z,101936.06
2022-08-12T06:44:06.198Z,101934.50
2022-08-12T06:54:14.203Z,101926.53
2022-08-12T07:04:52.723Z,101927.94
2022-08-12T07:15:14.267Z,101930.00
2022-08-12T07:25:40.952Z,101933.19
2022-08-12T07:36:03.614Z,101941.59
2022-08-12T07:46:36.897Z,101955.63
2022-08-12T07:56:58.804Z,101937.13
2022-08-12T08:07:20.857Z,101948.59
2022-08-12T08:18:02.832Z,101953.75
2022-08-12T08:28:24.426Z,101945.47
2022-08-12T08:38:53.142Z,101954.09
2022-08-12T08:49:20.551Z,101946.59
2022-08-12T08:59:42.180Z,101953.09
2022-08-12T09:10:09.100Z,101953.84
2022-08-12T09:20:34.946Z,101951.53
2022-08-12T09:30:59.823Z,101943.59
2022-08-12T09:42:34.424Z,101947.94
2022-08-12T09:52:04.454Z,101920.91
2022-08-12T10:02:41.839Z,101914.34
2022-08-12T10:13:39.897Z,101916.13
2022-08-12T10:24:05.051Z,101897.06
2022-08-12T10:34:27.504Z,101885.72
2022-08-12T10:44:49.778Z,101883.22
2022-08-12T10:55:13.382Z,101877.00
2022-08-12T11:07:10.200Z,101860.41
2022-08-12T11:16:22.271Z,101848.28
2022-08-12T11:26:44.999Z,101842.06
2022-08-12T11:37:07.362Z,101830.44
2022-08-12T11:47:49.267Z,101817.72
2022-08-12T11:59:28.648Z,101810.56
2022-08-12T12:08:53.854Z,101798.06
2022-08-12T12:19:17.711Z,101794.91
2022-08-12T12:30:17.613Z,101782.44
2022-08-12T12:40:29.840Z,101771.22
2022-08-12T12:51:13.491Z,101770.34
2022-08-12T13:01:42.190Z,101766.44
2022-08-12T13:12:10.400Z,101746.09
2022-08-12T13:22:32.878Z,101760.94
2022-08-12T13:32:58.659Z,101746.88
2022-08-12T13:43:41.107Z,101752.03
2022-08-12T13:54:09.529Z,101753.44
2022-08-12T14:04:33.431Z,101744.81
2022-08-12T14:14:55.377Z,101731.50
2022-08-12T14:25:17.772Z,101721.69
2022-08-12T14:35:41.291Z,101719.06
2022-08-12T14:46:15.570Z,101711.69
2022-08-12T15:07:33.868Z,101688.25
2022-08-12T15:18:02.025Z,101678.25
2022-08-12T15:28:26.326Z,101670.19
2022-08-12T15:38:48.963Z,101664.69
2022-08-12T15:49:17.135Z,101667.56
2022-08-12T16:00:00.304Z,101654.69
2022-08-12T16:10:22.469Z,101658.97
2022-08-12T16:20:52.506Z,101647.25
2022-08-12T16:31:22.975Z,101637.31
2022-08-12T16:41:45.582Z,101627.19
2022-08-12T16:52:12.499Z,101617.88
2022-08-12T17:02:36.863Z,101621.38
2022-08-12T17:13:00.017Z,101617.81
2022-08-12T17:23:28.550Z,101609.53
2022-08-12T17:34:29.835Z,101602.31
2022-08-12T17:44:52.639Z,101605.19
2022-08-12T17:55:44.792Z,101596.06
2022-08-12T18:06:01.562Z,101605.06
2022-08-12T18:16:29.041Z,101611.00
2022-08-12T18:26:50.790Z,101609.47
2022-08-12T18:37:40.995Z,101622.91
2022-08-12T18:47:58.456Z,101618.16
2022-08-12T18:58:20.663Z,101626.41
2022-08-12T19:08:47.175Z,101634.88
2022-08-12T19:19:10.597Z,101642.06
2022-08-12T19:29:44.126Z,101650.78
2022-08-12T19:40:19.766Z,101641.47
2022-08-12T19:50:53.380Z,101658.06
2022-08-12T20:01:17.227Z,101654.31
2022-08-12T20:12:09.644Z,101657.19
2022-08-12T20:22:24.918Z,101669.19
2022-08-12T20:32:56.408Z,101671.38
2022-08-12T20:43:19.135Z,101676.38
2022-08-12T20:53:54.090Z,101680.94
2022-08-12T21:04:39.887Z,101677.91
2022-08-12T21:15:17.197Z,101676.47
2022-08-12T21:25:47.193Z,101679.16
2022-08-12T21:36:14.442Z,101678.69
2022-08-12T21:46:53.557Z,101687.84
2022-08-12T21:57:15.357Z,101693.53
2022-08-12T22:07:46.096Z,101689.31
2022-08-12T22:18:16.058Z,101694.28
2022-08-12T22:28:58.994Z,101701.19
2022-08-12T22:39:20.636Z,101699.22
2022-08-12T22:49:53.157Z,101697.47
2022-08-12T23:00:24.120Z,101705.09
2022-08-12T23:10:50.300Z,101703.94
2022-08-12T23:21:14.557Z,101697.53
2022-08-12T23:32:03.430Z,101701.66
2022-08-12T23:42:19.938Z,101700.75
2022-08-12T23:52:46.651Z,101702.31
